Terminal Aerodrome Forecast
Issued by NWS Corpus Christi, TX

Home | Current Version | Previous Version | Text Only | Print | Product List | Glossary On
Versions: 1 2 3 4 5 6 7 8 9 10 11 12 13 14 15 16
000
FTUS44 KCRP 031131
TAFCRP
TAF
KCRP 031131Z 0312/0412 18004KT P6SM FEW020 SCT250
     FM031500 18008KT P6SM SCT030 BKN120
     FM031900 13014G20KT P6SM VCTS SCT035CB BKN120
     FM040100 16009KT P6SM FEW030 BKN150
     FM040800 15004KT P6SM FEW015 SCT250=

USA.gov is the U.S. government's official web portal to all federal, state and local government web resources and services.